createdAt,value
2024-04-15T00:04:45.836Z,6.90
2024-04-15T00:09:48.553Z,7.00
2024-04-15T00:14:51.524Z,8.30
2024-04-15T00:19:54.459Z,7.70
2024-04-15T00:24:57.182Z,7.10
2024-04-15T00:29:59.857Z,10.00
2024-04-15T00:35:02.588Z,8.30
2024-04-15T00:40:06.360Z,10.60
2024-04-15T00:45:32.039Z,9.00
2024-04-15T00:50:41.589Z,12.40
2024-04-15T00:55:49.251Z,8.50
2024-04-15T01:00:54.930Z,11.00
2024-04-15T01:05:57.809Z,9.20
2024-04-15T01:11:01.456Z,9.00
2024-04-15T01:16:04.633Z,11.10
2024-04-15T01:21:09.019Z,4.90
2024-04-15T01:26:11.758Z,10.80
2024-04-15T01:31:14.744Z,8.50
2024-04-15T01:36:17.626Z,8.00
2024-04-15T01:41:20.344Z,9.80
2024-04-15T01:46:23.138Z,8.40
2024-04-15T01:51:28.296Z,7.80
2024-04-15T01:56:30.949Z,4.90
2024-04-15T02:01:36.981Z,9.30
2024-04-15T02:06:39.849Z,7.30
2024-04-15T02:11:42.692Z,6.60
2024-04-15T02:16:45.390Z,6.50
2024-04-15T02:21:48.182Z,14.20
2024-04-15T02:26:51.012Z,8.30
2024-04-15T02:31:53.932Z,6.30
2024-04-15T02:36:56.857Z,7.30
2024-04-15T02:41:59.610Z,9.40
2024-04-15T02:47:02.524Z,9.60
2024-04-15T02:52:05.433Z,10.40
2024-04-15T02:57:08.274Z,8.60
2024-04-15T03:02:11.026Z,9.10
2024-04-15T03:07:13.908Z,9.10
2024-04-15T03:12:17.410Z,8.90
2024-04-15T03:17:21.582Z,11.20
2024-04-15T03:22:24.566Z,7.50
2024-04-15T03:27:27.341Z,7.20
2024-04-15T03:32:32.826Z,9.00
2024-04-15T03:37:35.650Z,9.40
2024-04-15T03:42:38.747Z,7.30
2024-04-15T03:47:42.397Z,7.90
2024-04-15T03:52:45.257Z,9.70
2024-04-15T03:57:48.122Z,8.80
2024-04-15T04:02:53.740Z,6.80
2024-04-15T04:07:56.880Z,6.10
2024-04-15T04:13:00.001Z,17.60
2024-04-15T04:18:03.171Z,6.50
2024-04-15T04:23:06.084Z,8.80
2024-04-15T04:28:08.901Z,7.60
2024-04-15T04:33:11.691Z,9.80
2024-04-15T04:38:14.461Z,13.60
2024-04-15T04:43:17.222Z,8.00
2024-04-15T04:48:21.804Z,7.70
2024-04-15T04:53:24.538Z,11.40
2024-04-15T04:58:27.234Z,10.60
2024-04-15T05:03:30.120Z,11.60
2024-04-15T05:08:33.245Z,7.00
2024-04-15T05:13:36.154Z,6.20
2024-04-15T05:18:41.641Z,7.90
2024-04-15T05:23:45.118Z,11.20
2024-04-15T05:28:47.788Z,9.40
2024-04-15T05:33:50.656Z,10.60
2024-04-15T05:38:53.323Z,8.30
2024-04-15T05:43:56.079Z,9.80
2024-04-15T05:48:58.962Z,9.20
2024-04-15T05:54:01.676Z,16.00
2024-04-15T05:59:04.599Z,9.20
2024-04-15T06:04:09.087Z,7.60
2024-04-15T06:09:11.968Z,9.80
2024-04-15T06:14:14.662Z,7.90
2024-04-15T06:19:17.513Z,10.80
2024-04-15T06:24:20.297Z,13.10
2024-04-15T06:29:25.066Z,8.70
2024-04-15T06:34:30.441Z,11.40
2024-04-15T06:39:34.995Z,6.00
2024-04-15T06:44:45.088Z,6.30
2024-04-15T06:49:48.016Z,8.20
2024-04-15T06:54:50.841Z,9.60
2024-04-15T06:59:53.976Z,7.00
2024-04-15T07:04:56.727Z,11.20
2024-04-15T07:09:59.542Z,6.80
2024-04-15T07:15:02.404Z,4.90
2024-04-15T07:20:06.865Z,8.00
2024-04-15T07:25:09.618Z,6.30
2024-04-15T07:30:12.522Z,6.10
2024-04-15T07:35:15.458Z,4.90
2024-04-15T07:40:18.279Z,9.80
2024-04-15T07:45:21.226Z,9.80
2024-04-15T07:50:24.420Z,10.40
2024-04-15T07:55:27.273Z,5.70
2024-04-15T08:00:30.220Z,7.70
2024-04-15T08:05:32.926Z,7.50
2024-04-15T08:10:36.436Z,5.20
2024-04-15T08:15:40.356Z,6.00
2024-04-15T08:20:43.398Z,8.10
2024-04-15T08:25:56.871Z,7.20
2024-04-15T08:31:00.051Z,7.20
2024-04-15T08:36:09.964Z,5.60
2024-04-15T08:41:28.103Z,8.00
2024-04-15T08:46:42.361Z,6.20
2024-04-15T08:51:46.814Z,5.30
2024-04-15T08:56:54.458Z,6.00
2024-04-15T09:01:57.674Z,6.70
2024-04-15T09:07:13.394Z,6.70
2024-04-15T09:12:43.129Z,6.60
2024-04-15T09:17:46.670Z,10.80
2024-04-15T09:22:49.722Z,9.00
2024-04-15T09:27:56.698Z,8.80
2024-04-15T09:33:01.761Z,4.30
2024-04-15T09:38:08.984Z,6.50
2024-04-15T09:43:16.722Z,4.60
2024-04-15T09:48:24.675Z,5.90
2024-04-15T09:53:44.597Z,4.50
2024-04-15T09:58:57.241Z,3.70
2024-04-15T10:04:05.324Z,5.10
2024-04-15T10:09:09.967Z,7.20
2024-04-15T10:14:15.569Z,4.00
2024-04-15T10:19:35.822Z,4.60
2024-04-15T10:24:40.251Z,4.80
2024-04-15T10:29:43.852Z,5.80
2024-04-15T10:34:49.667Z,6.30
2024-04-15T10:39:52.604Z,6.90
2024-04-15T10:44:56.259Z,5.40
2024-04-15T10:50:00.398Z,5.80
2024-04-15T10:55:08.717Z,5.50
2024-04-15T11:00:17.586Z,4.90
2024-04-15T11:05:23.401Z,5.40
2024-04-15T11:10:26.557Z,5.60
2024-04-15T11:15:30.448Z,4.50
2024-04-15T11:20:33.497Z,6.10
2024-04-15T11:25:39.716Z,6.90
2024-04-15T11:30:42.798Z,7.20
2024-04-15T11:35:53.522Z,9.30
2024-04-15T11:40:58.756Z,7.70
2024-04-15T11:46:01.973Z,6.00
2024-04-15T11:51:09.353Z,5.30
2024-04-15T11:56:14.584Z,8.90
2024-04-15T12:01:17.709Z,5.50
2024-04-15T12:06:20.631Z,6.00
2024-04-15T12:11:25.381Z,4.00
2024-04-15T12:16:28.303Z,5.20
2024-04-15T12:21:34.157Z,4.80
2024-04-15T12:26:38.093Z,5.20
2024-04-15T12:31:41.265Z,7.00
2024-04-15T12:36:47.665Z,6.20
2024-04-15T12:41:54.903Z,4.20
2024-04-15T12:47:00.571Z,5.70
2024-04-15T12:52:08.278Z,6.60
2024-04-15T12:57:17.523Z,4.70
2024-04-15T13:02:21.818Z,6.20
2024-04-15T13:07:28.300Z,6.50
2024-04-15T13:12:33.069Z,6.80
2024-04-15T13:17:35.930Z,7.70
2024-04-15T13:22:39.287Z,4.00
2024-04-15T13:27:48.871Z,6.00
2024-04-15T13:32:51.928Z,5.90
2024-04-15T13:37:57.742Z,9.40
2024-04-15T13:43:03.372Z,23.60
2024-04-15T13:48:09.999Z,13.50
2024-04-15T13:53:22.013Z,11.10
2024-04-15T13:58:25.526Z,7.20
2024-04-15T14:03:28.714Z,24.20
2024-04-15T14:08:31.984Z,5.80
2024-04-15T14:13:36.568Z,5.90
2024-04-15T14:18:47.128Z,8.60
2024-04-15T14:23:51.147Z,8.80
2024-04-15T14:28:58.564Z,11.70
2024-04-15T14:34:02.183Z,21.80
2024-04-15T14:39:06.793Z,12.10
2024-04-15T14:44:10.893Z,13.10
2024-04-15T14:49:24.566Z,5.90
2024-04-15T14:54:32.938Z,6.00
2024-04-15T14:59:50.037Z,9.00
2024-04-15T15:04:58.023Z,12.10
2024-04-15T15:10:02.761Z,7.10
2024-04-15T15:15:09.807Z,7.70
2024-04-15T15:20:12.798Z,12.00
2024-04-15T15:25:16.329Z,7.70
2024-04-15T15:30:22.345Z,5.50
2024-04-15T15:35:25.276Z,7.40
2024-04-15T15:40:32.245Z,7.20
2024-04-15T15:45:40.431Z,7.80
2024-04-15T15:50:44.511Z,8.70
2024-04-15T15:55:50.131Z,7.60
2024-04-15T16:00:54.125Z,11.10
2024-04-15T16:05:59.565Z,7.80
2024-04-15T16:11:03.030Z,9.40
2024-04-15T16:16:06.433Z,10.80
2024-04-15T16:21:09.246Z,16.80
2024-04-15T16:26:16.268Z,11.80
2024-04-15T16:31:23.347Z,9.20
2024-04-15T16:36:28.734Z,9.20
2024-04-15T16:41:44.835Z,11.80
2024-04-15T16:46:54.175Z,26.00
2024-04-15T16:51:58.083Z,13.50
2024-04-15T16:57:06.094Z,13.60
2024-04-15T17:02:24.172Z,6.40
2024-04-15T17:07:28.665Z,11.50
2024-04-15T17:12:31.832Z,9.80
2024-04-15T17:17:36.149Z,29.00
2024-04-15T17:22:38.960Z,16.90
2024-04-15T17:27:43.059Z,24.30
2024-04-15T17:32:45.947Z,14.70
2024-04-15T17:37:50.492Z,13.30
2024-04-15T17:42:55.895Z,16.30
2024-04-15T17:47:59.015Z,22.00
2024-04-15T17:53:01.861Z,16.40
2024-04-15T17:58:05.017Z,21.10
2024-04-15T18:03:07.909Z,14.40
2024-04-15T18:08:10.828Z,8.80
2024-04-15T18:13:13.847Z,9.20
2024-04-15T18:18:17.112Z,12.60
2024-04-15T18:23:19.846Z,15.70
2024-04-15T18:28:22.699Z,10.40
2024-04-15T18:33:25.604Z,19.80
2024-04-15T18:38:28.322Z,15.90
2024-04-15T18:43:31.471Z,24.40
2024-04-15T18:48:35.294Z,53.90
2024-04-15T18:53:38.173Z,48.10
2024-04-15T18:58:41.061Z,24.40
2024-04-15T19:03:44.609Z,27.10
2024-04-15T19:08:47.486Z,28.90
2024-04-15T19:13:50.161Z,27.00
2024-04-15T19:18:53.269Z,20.50
2024-04-15T19:23:56.604Z,19.70
2024-04-15T19:28:59.385Z,17.40
2024-04-15T19:34:02.581Z,13.20
2024-04-15T19:39:12.779Z,19.60
2024-04-15T19:44:15.540Z,43.30
2024-04-15T19:49:18.366Z,26.00
2024-04-15T19:54:21.454Z,20.20
2024-04-15T19:59:24.304Z,20.40
2024-04-15T20:04:27.282Z,12.60
2024-04-15T20:09:33.238Z,15.60
2024-04-15T20:14:35.958Z,32.70
2024-04-15T20:19:46.926Z,25.70
2024-04-15T20:24:49.717Z,22.80
2024-04-15T20:29:52.525Z,27.90
2024-04-15T20:34:58.789Z,38.40
2024-04-15T20:40:01.682Z,20.10
2024-04-15T20:45:05.594Z,14.00
2024-04-15T20:50:08.295Z,19.70
2024-04-15T20:55:11.027Z,27.10
2024-04-15T21:00:13.902Z,18.10
2024-04-15T21:05:17.361Z,25.50
2024-04-15T21:10:20.207Z,14.50
2024-04-15T21:15:23.000Z,15.80
2024-04-15T21:20:25.609Z,18.00
2024-04-15T21:25:28.495Z,15.60
2024-04-15T21:30:31.355Z,19.10
2024-04-15T21:35:34.188Z,15.70
2024-04-15T21:40:37.232Z,8.50
2024-04-15T21:45:40.045Z,9.40
2024-04-15T21:50:43.253Z,11.20
2024-04-15T21:55:46.576Z,8.60
2024-04-15T22:00:49.487Z,9.40
2024-04-15T22:05:52.304Z,11.90
2024-04-15T22:10:55.060Z,10.00
2024-04-15T22:15:57.983Z,14.30
2024-04-15T22:21:00.852Z,10.20
2024-04-15T22:26:03.921Z,9.30
2024-04-15T22:31:06.920Z,11.40
2024-04-15T22:36:09.786Z,9.70
2024-04-15T22:41:12.520Z,7.20
2024-04-15T22:46:15.257Z,9.30
2024-04-15T22:51:18.168Z,10.80
2024-04-15T22:56:20.978Z,8.50
2024-04-15T23:01:25.382Z,10.60
2024-04-15T23:06:28.796Z,11.40
2024-04-15T23:11:31.591Z,13.10
2024-04-15T23:16:34.371Z,12.40
2024-04-15T23:21:37.496Z,11.20
2024-04-15T23:26:40.216Z,15.40
2024-04-15T23:31:46.435Z,16.20
2024-04-15T23:36:49.126Z,15.90
2024-04-15T23:41:51.949Z,16.10
2024-04-15T23:46:54.738Z,15.20
2024-04-15T23:51:57.715Z,12.20
2024-04-15T23:57:00.824Z,14.20
